sensor_id;sensor_type;location;lat;lon;timestamp;pressure;altitude;pressure_sealevel;temperature;humidity
19811;BME280;10065;49.632;8.346;2023-02-01T00:00:46;101223.75;;;7.97;76.29
19811;BME280;10065;49.632;8.346;2023-02-01T00:03:14;101220.78;;;8.02;76.15
19811;BME280;10065;49.632;8.346;2023-02-01T00:05:42;101217.19;;;8.03;75.82
19811;BME280;10065;49.632;8.346;2023-02-01T00:08:10;101224.50;;;7.99;75.55
19811;BME280;10065;49.632;8.346;2023-02-01T00:10:39;101220.78;;;8.02;75.76
19811;BME280;10065;49.632;8.346;2023-02-01T00:13:06;101209.34;;;8.01;75.96
19811;BME280;10065;49.632;8.346;2023-02-01T00:15:34;101203.66;;;8.07;75.70
19811;BME280;10065;49.632;8.346;2023-02-01T00:18:02;101202.81;;;8.07;75.42
19811;BME280;10065;49.632;8.346;2023-02-01T00:20:30;101214.88;;;7.98;75.98
19811;BME280;10065;49.632;8.346;2023-02-01T00:22:57;101205.88;;;8.01;76.00
19811;BME280;10065;49.632;8.346;2023-02-01T00:25:25;101210.84;;;8.05;75.96
19811;BME280;10065;49.632;8.346;2023-02-01T00:27:54;101211.91;;;8.03;76.03
19811;BME280;10065;49.632;8.346;2023-02-01T00:30:25;101210.63;;;8.08;75.85
19811;BME280;10065;49.632;8.346;2023-02-01T00:32:52;101198.94;;;8.11;75.90
19811;BME280;10065;49.632;8.346;2023-02-01T00:35:20;101211.22;;;8.12;75.56
19811;BME280;10065;49.632;8.346;2023-02-01T00:37:48;101216.28;;;8.15;75.49
19811;BME280;10065;49.632;8.346;2023-02-01T00:40:16;101217.00;;;8.17;75.35
19811;BME280;10065;49.632;8.346;2023-02-01T00:42:44;101214.13;;;8.20;75.44
19811;BME280;10065;49.632;8.346;2023-02-01T00:45:13;101211.59;;;8.18;75.44
19811;BME280;10065;49.632;8.346;2023-02-01T00:47:41;101203.22;;;8.24;75.11
19811;BME280;10065;49.632;8.346;2023-02-01T00:50:10;101209.09;;;8.28;75.17
19811;BME280;10065;49.632;8.346;2023-02-01T00:52:37;101217.28;;;8.25;74.97
19811;BME280;10065;49.632;8.346;2023-02-01T00:55:06;101209.47;;;8.23;75.31
19811;BME280;10065;49.632;8.346;2023-02-01T00:57:33;101214.38;;;8.17;75.69
19811;BME280;10065;49.632;8.346;2023-02-01T01:00:01;101222.78;;;8.22;75.70
19811;BME280;10065;49.632;8.346;2023-02-01T01:02:31;101213.91;;;8.23;75.48
19811;BME280;10065;49.632;8.346;2023-02-01T01:04:58;101201.72;;;8.33;75.43
19811;BME280;10065;49.632;8.346;2023-02-01T01:07:27;101200.50;;;8.37;75.31
19811;BME280;10065;49.632;8.346;2023-02-01T01:09:55;101209.06;;;8.41;75.14
19811;BME280;10065;49.632;8.346;2023-02-01T01:12:22;101196.91;;;8.38;75.62
19811;BME280;10065;49.632;8.346;2023-02-01T01:14:50;101200.50;;;8.37;75.17
19811;BME280;10065;49.632;8.346;2023-02-01T01:17:18;101198.13;;;8.34;75.50
19811;BME280;10065;49.632;8.346;2023-02-01T01:19:47;101193.78;;;8.33;75.64
19811;BME280;10065;49.632;8.346;2023-02-01T01:22:15;101195.13;;;8.39;75.70
19811;BME280;10065;49.632;8.346;2023-02-01T01:24:42;101193.09;;;8.42;75.19
19811;BME280;10065;49.632;8.346;2023-02-01T01:27:10;101198.50;;;8.41;75.10
19811;BME280;10065;49.632;8.346;2023-02-01T01:29:38;101194.06;;;8.41;75.31
19811;BME280;10065;49.632;8.346;2023-02-01T01:32:06;101196.47;;;8.44;74.95
19811;BME280;10065;49.632;8.346;2023-02-01T01:34:33;101191.28;;;8.43;74.87
19811;BME280;10065;49.632;8.346;2023-02-01T01:37:02;101186.72;;;8.45;74.76
19811;BME280;10065;49.632;8.346;2023-02-01T01:39:30;101188.41;;;8.46;74.56
19811;BME280;10065;49.632;8.346;2023-02-01T01:41:58;101178.44;;;8.49;74.45
19811;BME280;10065;49.632;8.346;2023-02-01T01:44:59;101180.13;;;8.50;74.32
19811;BME280;10065;49.632;8.346;2023-02-01T01:47:30;101178.56;;;8.48;74.34
19811;BME280;10065;49.632;8.346;2023-02-01T01:50:01;101176.13;;;8.45;74.58
19811;BME280;10065;49.632;8.346;2023-02-01T01:52:31;101179.63;;;8.45;74.71
19811;BME280;10065;49.632;8.346;2023-02-01T01:54:59;101173.38;;;8.46;74.88
19811;BME280;10065;49.632;8.346;2023-02-01T01:57:30;101177.81;;;8.46;74.65
19811;BME280;10065;49.632;8.346;2023-02-01T02:00:04;101171.25;;;8.51;74.63
19811;BME280;10065;49.632;8.346;2023-02-01T02:02:33;101172.94;;;8.52;74.49
19811;BME280;10065;49.632;8.346;2023-02-01T02:05:02;101174.47;;;8.44;74.69
19811;BME280;10065;49.632;8.346;2023-02-01T02:07:35;101167.88;;;8.49;74.71
19811;BME280;10065;49.632;8.346;2023-02-01T02:10:05;101168.56;;;8.40;75.33
19811;BME280;10065;49.632;8.346;2023-02-01T02:12:33;101168.69;;;8.39;75.79
19811;BME280;10065;49.632;8.346;2023-02-01T02:15:01;101165.72;;;8.43;75.54
19811;BME280;10065;49.632;8.346;2023-02-01T02:17:35;101169.19;;;8.44;75.20
19811;BME280;10065;49.632;8.346;2023-02-01T02:23:22;101159.06;;;8.38;76.19
19811;BME280;10065;49.632;8.346;2023-02-01T02:26:21;101139.25;;;8.32;76.96
19811;BME280;10065;49.632;8.346;2023-02-01T02:29:14;101133.13;;;8.32;77.01
19811;BME280;10065;49.632;8.346;2023-02-01T02:32:03;101137.03;;;8.15;78.64
19811;BME280;10065;49.632;8.346;2023-02-01T02:34:38;101123.06;;;8.13;78.94
19811;BME280;10065;49.632;8.346;2023-02-01T02:37:15;101114.56;;;8.20;78.61
19811;BME280;10065;49.632;8.346;2023-02-01T02:39:56;101112.28;;;8.16;79.30
19811;BME280;10065;49.632;8.346;2023-02-01T02:42:29;101109.97;;;8.11;79.87
19811;BME280;10065;49.632;8.346;2023-02-01T02:45:20;101109.38;;;8.08;80.89
19811;BME280;10065;49.632;8.346;2023-02-01T02:48:10;101108.06;;;8.13;81.13
19811;BME280;10065;49.632;8.346;2023-02-01T02:50:45;101115.28;;;8.22;80.47
19811;BME280;10065;49.632;8.346;2023-02-01T02:53:34;101123.44;;;8.19;80.61
19811;BME280;10065;49.632;8.346;2023-02-01T02:56:23;101120.22;;;8.16;81.09
19811;BME280;10065;49.632;8.346;2023-02-01T02:59:12;101112.19;;;8.28;80.42
19811;BME280;10065;49.632;8.346;2023-02-01T03:01:59;101125.75;;;8.24;80.45
19811;BME280;10065;49.632;8.346;2023-02-01T03:04:44;101120.47;;;8.24;80.27
19811;BME280;10065;49.632;8.346;2023-02-01T03:07:45;101113.72;;;8.20;80.33
19811;BME280;10065;49.632;8.346;2023-02-01T03:10:05;101117.94;;;8.22;80.45
19811;BME280;10065;49.632;8.346;2023-02-01T03:12:39;101106.03;;;8.28;79.97
19811;BME280;10065;49.632;8.346;2023-02-01T03:15:26;101094.53;;;8.29;79.55
19811;BME280;10065;49.632;8.346;2023-02-01T03:17:59;101099.50;;;8.34;79.05
19811;BME280;10065;49.632;8.346;2023-02-01T03:20:29;101098.66;;;8.33;79.02
19811;BME280;10065;49.632;8.346;2023-02-01T03:22:59;101096.00;;;8.33;78.75
19811;BME280;10065;49.632;8.346;2023-02-01T03:25:29;101095.06;;;8.34;78.36
19811;BME280;10065;49.632;8.346;2023-02-01T03:28:00;101103.69;;;8.36;78.38
19811;BME280;10065;49.632;8.346;2023-02-01T03:30:32;101101.78;;;8.38;77.88
19811;BME280;10065;49.632;8.346;2023-02-01T03:33:04;101095.41;;;8.41;77.57
19811;BME280;10065;49.632;8.346;2023-02-01T03:35:45;101101.53;;;8.41;77.42
19811;BME280;10065;49.632;8.346;2023-02-01T03:38:20;101103.22;;;8.42;77.36
19811;BME280;10065;49.632;8.346;2023-02-01T03:40:55;101103.81;;;8.46;77.05
19811;BME280;10065;49.632;8.346;2023-02-01T03:43:27;101106.34;;;8.47;76.89
19811;BME280;10065;49.632;8.346;2023-02-01T03:46:00;101104.66;;;8.46;76.97
19811;BME280;10065;49.632;8.346;2023-02-01T03:48:29;101109.72;;;8.49;76.95
19811;BME280;10065;49.632;8.346;2023-02-01T03:51:00;101119.44;;;8.49;77.25
19811;BME280;10065;49.632;8.346;2023-02-01T03:53:33;101115.84;;;8.50;77.23
19811;BME280;10065;49.632;8.346;2023-02-01T03:56:03;101121.59;;;8.55;77.37
19811;BME280;10065;49.632;8.346;2023-02-01T03:58:32;101116.44;;;8.53;77.58
19811;BME280;10065;49.632;8.346;2023-02-01T04:01:00;101116.69;;;8.50;78.24
19811;BME280;10065;49.632;8.346;2023-02-01T04:03:28;101110.56;;;8.50;78.49
19811;BME280;10065;49.632;8.346;2023-02-01T04:05:56;101110.69;;;8.48;78.87
19811;BME280;10065;49.632;8.346;2023-02-01T04:08:24;101118.50;;;8.50;79.01
19811;BME280;10065;49.632;8.346;2023-02-01T04:10:53;101110.69;;;8.48;79.61
19811;BME280;10065;49.632;8.346;2023-02-01T04:13:21;101109.72;;;8.49;79.82
19811;BME280;10065;49.632;8.346;2023-02-01T04:15:48;101113.09;;;8.51;79.95
19811;BME280;10065;49.632;8.346;2023-02-01T04:18:17;101123.28;;;8.56;80.36
19811;BME280;10065;49.632;8.346;2023-02-01T04:20:44;101123.78;;;8.61;80.25
19811;BME280;10065;49.632;8.346;2023-02-01T04:23:12;101128.81;;;8.64;80.59
19811;BME280;10065;49.632;8.346;2023-02-01T04:25:42;101130.16;;;8.70;81.00
19811;BME280;10065;49.632;8.346;2023-02-01T04:28:11;101132.56;;;8.73;81.24
19811;BME280;10065;49.632;8.346;2023-02-01T04:30:39;101141.69;;;8.68;81.65
19811;BME280;10065;49.632;8.346;2023-02-01T04:33:06;101138.31;;;8.66;82.24
19811;BME280;10065;49.632;8.346;2023-02-01T04:35:34;101140.59;;;8.71;82.33
19811;BME280;10065;49.632;8.346;2023-02-01T04:38:02;101132.94;;;8.68;82.04
19811;BME280;10065;49.632;8.346;2023-02-01T04:40:30;101126.41;;;8.72;81.44
19811;BME280;10065;49.632;8.346;2023-02-01T04:42:57;101127.53;;;8.70;81.08
19811;BME280;10065;49.632;8.346;2023-02-01T04:45:26;101124.03;;;8.58;81.80
19811;BME280;10065;49.632;8.346;2023-02-01T04:47:54;101130.75;;;8.62;81.84
19811;BME280;10065;49.632;8.346;2023-02-01T04:50:22;101121.25;;;8.59;82.04
19811;BME280;10065;49.632;8.346;2023-02-01T04:52:50;101127.75;;;8.66;80.93
19811;BME280;10065;49.632;8.346;2023-02-01T04:55:18;101115.03;;;8.60;80.81
19811;BME280;10065;49.632;8.346;2023-02-01T04:57:46;101110.06;;;8.56;80.80
19811;BME280;10065;49.632;8.346;2023-02-01T05:00:14;101120.53;;;8.57;81.21
19811;BME280;10065;49.632;8.346;2023-02-01T05:02:45;101132.78;;;8.58;81.48
19811;BME280;10065;49.632;8.346;2023-02-01T05:05:13;101161.66;;;8.61;81.47
19811;BME280;10065;49.632;8.346;2023-02-01T05:07:41;101139.28;;;8.54;81.88
19811;BME280;10065;49.632;8.346;2023-02-01T05:10:09;101149.00;;;8.54;81.73
19811;BME280;10065;49.632;8.346;2023-02-01T05:12:37;101152.25;;;8.46;82.43
19811;BME280;10065;49.632;8.346;2023-02-01T05:15:37;101139.63;;;8.39;82.19
19811;BME280;10065;49.632;8.346;2023-02-01T05:18:06;101132.53;;;8.39;81.91
19811;BME280;10065;49.632;8.346;2023-02-01T05:20:33;101136.84;;;8.40;81.81
19811;BME280;10065;49.632;8.346;2023-02-01T05:23:01;101132.75;;;8.36;82.13
19811;BME280;10065;49.632;8.346;2023-02-01T05:25:29;101122.31;;;8.35;81.90
19811;BME280;10065;49.632;8.346;2023-02-01T05:27:57;101132.28;;;8.31;81.89
19811;BME280;10065;49.632;8.346;2023-02-01T05:30:25;101115.91;;;8.26;81.51
19811;BME280;10065;49.632;8.346;2023-02-01T05:32:53;101118.56;;;8.26;81.45
19811;BME280;10065;49.632;8.346;2023-02-01T05:35:22;101118.31;;;8.29;81.00
19811;BME280;10065;49.632;8.346;2023-02-01T05:37:50;101115.47;;;8.32;80.89
19811;BME280;10065;49.632;8.346;2023-02-01T05:40:17;101111.13;;;8.31;80.75
19811;BME280;10065;49.632;8.346;2023-02-01T05:42:45;101111.34;;;8.28;81.17
19811;BME280;10065;49.632;8.346;2023-02-01T05:45:13;101087.44;;;8.29;80.71
19811;BME280;10065;49.632;8.346;2023-02-01T05:47:41;101096.91;;;8.21;80.97
19811;BME280;10065;49.632;8.346;2023-02-01T05:50:09;101076.72;;;8.20;80.99
19811;BME280;10065;49.632;8.346;2023-02-01T05:52:38;101078.41;;;8.21;80.91
19811;BME280;10065;49.632;8.346;2023-02-01T05:55:07;101089.47;;;8.15;81.38
19811;BME280;10065;49.632;8.346;2023-02-01T05:57:35;101095.94;;;8.11;82.22
19811;BME280;10065;49.632;8.346;2023-02-01T06:00:03;101100.03;;;8.15;82.13
19811;BME280;10065;49.632;8.346;2023-02-01T06:02:31;101101.47;;;8.19;81.80
19811;BME280;10065;49.632;8.346;2023-02-01T06:04:59;101096.81;;;8.22;81.74
19811;BME280;10065;49.632;8.346;2023-02-01T06:07:26;101096.19;;;8.19;81.57
19811;BME280;10065;49.632;8.346;2023-02-01T06:09:56;101103.25;;;8.18;81.48
19811;BME280;10065;49.632;8.346;2023-02-01T06:12:24;101102.06;;;8.11;81.75
19811;BME280;10065;49.632;8.346;2023-02-01T06:14:54;101105.22;;;8.16;81.75
19811;BME280;10065;49.632;8.346;2023-02-01T06:17:22;101113.03;;;8.18;81.63
19811;BME280;10065;49.632;8.346;2023-02-01T06:19:49;101113.13;;;8.16;81.68
19811;BME280;10065;49.632;8.346;2023-02-01T06:22:17;101107.84;;;8.16;81.92
19811;BME280;10065;49.632;8.346;2023-02-01T06:24:45;101105.78;;;8.20;81.85
19811;BME280;10065;49.632;8.346;2023-02-01T06:27:14;101111.81;;;8.22;81.46
19811;BME280;10065;49.632;8.346;2023-02-01T06:29:42;101100.19;;;8.24;81.26
19811;BME280;10065;49.632;8.346;2023-02-01T06:32:10;101091.28;;;8.25;80.33
19811;BME280;10065;49.632;8.346;2023-02-01T06:34:38;101086.97;;;8.24;80.67
19811;BME280;10065;49.632;8.346;2023-02-01T06:37:06;101081.56;;;8.26;80.37
19811;BME280;10065;49.632;8.346;2023-02-01T06:39:34;101099.06;;;8.27;80.13
19811;BME280;10065;49.632;8.346;2023-02-01T06:42:02;101109.66;;;8.27;79.93
19811;BME280;10065;49.632;8.346;2023-02-01T06:44:31;101114.34;;;8.23;79.56
19811;BME280;10065;49.632;8.346;2023-02-01T06:46:59;101113.72;;;8.20;79.68
19811;BME280;10065;49.632;8.346;2023-02-01T06:49:27;101117.56;;;8.16;79.65
19811;BME280;10065;49.632;8.346;2023-02-01T06:51:55;101118.03;;;8.10;79.65
19811;BME280;10065;49.632;8.346;2023-02-01T06:54:22;101134.72;;;8.10;79.49
19811;BME280;10065;49.632;8.346;2023-02-01T06:56:50;101131.00;;;8.13;78.91
19811;BME280;10065;49.632;8.346;2023-02-01T06:59:18;101131.00;;;8.13;78.58
19811;BME280;10065;49.632;8.346;2023-02-01T07:01:47;101131.38;;;8.19;77.19
19811;BME280;10065;49.632;8.346;2023-02-01T07:04:15;101133.66;;;8.13;77.05
19811;BME280;10065;49.632;8.346;2023-02-01T07:06:43;101125.47;;;8.05;76.59
19811;BME280;10065;49.632;8.346;2023-02-01T07:09:10;101129.91;;;8.04;76.91
19811;BME280;10065;49.632;8.346;2023-02-01T07:11:40;101130.97;;;8.02;76.94
19811;BME280;10065;49.632;8.346;2023-02-01T07:14:09;101124.00;;;8.01;76.95
19811;BME280;10065;49.632;8.346;2023-02-01T07:16:37;101119.06;;;7.96;76.83
19811;BME280;10065;49.632;8.346;2023-02-01T07:19:06;101112.22;;;7.93;77.12
19811;BME280;10065;49.632;8.346;2023-02-01T07:21:34;101112.31;;;7.92;76.98
19811;BME280;10065;49.632;8.346;2023-02-01T07:24:02;101102.06;;;8.00;76.71
19811;BME280;10065;49.632;8.346;2023-02-01T07:26:30;101092.31;;;8.01;76.29
19811;BME280;10065;49.632;8.346;2023-02-01T07:28:58;101094.13;;;8.00;75.15
19811;BME280;10065;49.632;8.346;2023-02-01T07:31:26;101095.31;;;7.96;74.72
19811;BME280;10065;49.632;8.346;2023-02-01T07:33:55;101104.56;;;8.02;73.98
19811;BME280;10065;49.632;8.346;2023-02-01T07:36:26;101113.44;;;8.01;73.83
19811;BME280;10065;49.632;8.346;2023-02-01T07:38:53;101113.44;;;8.01;73.38
19811;BME280;10065;49.632;8.346;2023-02-01T07:41:22;101125.84;;;8.11;73.14
19811;BME280;10065;49.632;8.346;2023-02-01T07:43:52;101118.84;;;8.10;72.78
19811;BME280;10065;49.632;8.346;2023-02-01T07:46:20;101124.28;;;8.09;72.81
19811;BME280;10065;49.632;8.346;2023-02-01T07:48:48;101137.50;;;8.09;72.51
19811;BME280;10065;49.632;8.346;2023-02-01T07:51:16;101149.16;;;8.17;72.05
19811;BME280;10065;49.632;8.346;2023-02-01T07:53:45;101156.72;;;8.22;71.75
19811;BME280;10065;49.632;8.346;2023-02-01T07:56:15;101147.25;;;8.30;71.47
19811;BME280;10065;49.632;8.346;2023-02-01T07:58:47;101158.22;;;8.37;71.18
19811;BME280;10065;49.632;8.346;2023-02-01T08:01:16;101160.66;;;8.40;71.19
19811;BME280;10065;49.632;8.346;2023-02-01T08:03:53;101163.50;;;8.37;71.69
19811;BME280;10065;49.632;8.346;2023-02-01T08:06:21;101166.03;;;8.39;72.14
19811;BME280;10065;49.632;8.346;2023-02-01T08:08:52;101175.31;;;8.44;72.36
19811;BME280;10065;49.632;8.346;2023-02-01T08:11:21;101179.50;;;8.47;72.46
19811;BME280;10065;49.632;8.346;2023-02-01T08:13:50;101187.00;;;8.53;72.37
19811;BME280;10065;49.632;8.346;2023-02-01T08:16:19;101187.34;;;8.59;72.11
19811;BME280;10065;49.632;8.346;2023-02-01T08:18:47;101182.91;;;8.71;71.53
19811;BME280;10065;49.632;8.346;2023-02-01T08:21:16;101192.41;;;8.74;71.57
19811;BME280;10065;49.632;8.346;2023-02-01T08:23:45;101193.75;;;8.68;71.80
19811;BME280;10065;49.632;8.346;2023-02-01T08:26:16;101192.19;;;8.77;71.70
19811;BME280;10065;49.632;8.346;2023-02-01T08:28:48;101190.97;;;8.70;72.01
19811;BME280;10065;49.632;8.346;2023-02-01T08:31:19;101193.47;;;8.71;72.05
19811;BME280;10065;49.632;8.346;2023-02-01T08:33:50;101194.72;;;8.78;71.72
19811;BME280;10065;49.632;8.346;2023-02-01T08:36:18;101193.88;;;8.78;71.72
19811;BME280;10065;49.632;8.346;2023-02-01T08:38:46;101188.69;;;8.65;72.16
19811;BME280;10065;49.632;8.346;2023-02-01T08:41:17;101187.13;;;8.74;72.28
19811;BME280;10065;49.632;8.346;2023-02-01T08:43:46;101193.38;;;8.73;72.20
19811;BME280;10065;49.632;8.346;2023-02-01T08:46:14;101198.69;;;8.84;71.86
19811;BME280;10065;49.632;8.346;2023-02-01T08:48:43;101194.59;;;8.91;71.63
19811;BME280;10065;49.632;8.346;2023-02-01T08:51:12;101196.16;;;9.04;71.23
19811;BME280;10065;49.632;8.346;2023-02-01T08:53:41;101192.78;;;9.14;70.91
19811;BME280;10065;49.632;8.346;2023-02-01T08:56:10;101201.69;;;9.13;70.91
19811;BME280;10065;49.632;8.346;2023-02-01T08:58:40;101199.88;;;9.13;70.85
19811;BME280;10065;49.632;8.346;2023-02-01T09:01:10;101202.03;;;9.08;70.79
19811;BME280;10065;49.632;8.346;2023-02-01T09:03:39;101206.38;;;8.98;71.33
19811;BME280;10065;49.632;8.346;2023-02-01T09:06:09;101197.59;;;8.97;71.42
19811;BME280;10065;49.632;8.346;2023-02-01T09:08:37;101204.94;;;9.05;71.33
19811;BME280;10065;49.632;8.346;2023-02-01T09:11:10;101198.19;;;9.12;70.92
19811;BME280;10065;49.632;8.346;2023-02-01T09:13:40;101202.66;;;9.12;70.52
19811;BME280;10065;49.632;8.346;2023-02-01T09:16:09;101192.28;;;8.97;69.46
19811;BME280;10065;49.632;8.346;2023-02-01T09:18:37;101195.19;;;8.94;70.46
19811;BME280;10065;49.632;8.346;2023-02-01T09:21:24;101207.59;;;8.94;70.02
19811;BME280;10065;49.632;8.346;2023-02-01T09:23:52;101207.59;;;8.94;69.54
19811;BME280;10065;49.632;8.346;2023-02-01T09:26:21;101201.06;;;8.98;67.85
19811;BME280;10065;49.632;8.346;2023-02-01T09:28:59;101209.16;;;8.96;68.17
19811;BME280;10065;49.632;8.346;2023-02-01T09:31:27;101226.47;;;9.00;67.91
19811;BME280;10065;49.632;8.346;2023-02-01T09:33:55;101231.75;;;9.00;66.44
19811;BME280;10065;49.632;8.346;2023-02-01T09:36:22;101225.28;;;9.04;65.18
19811;BME280;10065;49.632;8.346;2023-02-01T09:38:50;101223.22;;;9.08;64.53
19811;BME280;10065;49.632;8.346;2023-02-01T09:41:32;101231.00;;;8.98;62.89
19811;BME280;10065;49.632;8.346;2023-02-01T09:44:10;101247.84;;;8.97;62.78
19811;BME280;10065;49.632;8.346;2023-02-01T09:46:40;101254.47;;;9.03;63.33
19811;BME280;10065;49.632;8.346;2023-02-01T09:49:12;101260.97;;;8.99;62.80
19811;BME280;10065;49.632;8.346;2023-02-01T09:51:44;101269.41;;;9.04;62.94
19811;BME280;10065;49.632;8.346;2023-02-01T09:54:15;101280.22;;;9.01;61.40
19811;BME280;10065;49.632;8.346;2023-02-01T09:56:47;101270.84;;;9.08;60.48
19811;BME280;10065;49.632;8.346;2023-02-01T09:59:28;101265.53;;;9.08;60.15
19811;BME280;10065;49.632;8.346;2023-02-01T10:01:58;101262.66;;;9.11;60.08
19811;BME280;10065;49.632;8.346;2023-02-01T10:04:27;101264.81;;;9.17;60.14
19811;BME280;10065;49.632;8.346;2023-02-01T10:07:07;101249.06;;;9.27;60.45
19811;BME280;10065;49.632;8.346;2023-02-01T10:09:47;101251.00;;;9.25;60.08
19811;BME280;10065;49.632;8.346;2023-02-01T10:12:41;101271.81;;;9.29;60.05
19811;BME280;10065;49.632;8.346;2023-02-01T10:15:24;101266.75;;;9.37;59.56
19811;BME280;10065;49.632;8.346;2023-02-01T10:18:08;101275.44;;;9.39;59.30
19811;BME280;10065;49.632;8.346;2023-02-01T10:20:48;101278.78;;;9.41;59.14
19811;BME280;10065;49.632;8.346;2023-02-01T10:23:43;101282.41;;;9.40;58.13
19811;BME280;10065;49.632;8.346;2023-02-01T10:26:18;101269.28;;;9.28;57.97
19811;BME280;10065;49.632;8.346;2023-02-01T10:28:49;101263.75;;;9.31;58.20
19811;BME280;10065;49.632;8.346;2023-02-01T10:31:21;101268.44;;;9.27;57.89
19811;BME280;10065;49.632;8.346;2023-02-01T10:33:52;101256.16;;;9.26;58.48
19811;BME280;10065;49.632;8.346;2023-02-01T10:36:28;101253.41;;;9.39;58.43
19811;BME280;10065;49.632;8.346;2023-02-01T10:38:58;101254.72;;;9.33;58.37
19811;BME280;10065;49.632;8.346;2023-02-01T10:41:31;101254.38;;;9.27;58.07
19811;BME280;10065;49.632;8.346;2023-02-01T10:44:01;101248.94;;;9.28;58.41
19811;BME280;10065;49.632;8.346;2023-02-01T10:46:33;101251.34;;;9.42;58.28
19811;BME280;10065;49.632;8.346;2023-02-01T10:49:03;101236.06;;;9.57;58.80
19811;BME280;10065;49.632;8.346;2023-02-01T10:51:41;101230.13;;;9.65;57.75
19811;BME280;10065;49.632;8.346;2023-02-01T10:54:14;101228.06;;;9.68;56.67
19811;BME280;10065;49.632;8.346;2023-02-01T10:56:44;101234.94;;;9.71;57.17
19811;BME280;10065;49.632;8.346;2023-02-01T10:59:16;101221.72;;;9.60;58.44
19811;BME280;10065;49.632;8.346;2023-02-01T11:01:47;101213.88;;;9.69;58.89
19811;BME280;10065;49.632;8.346;2023-02-01T11:04:17;101222.88;;;9.78;58.88
19811;BME280;10065;49.632;8.346;2023-02-01T11:06:47;101222.03;;;9.77;59.58
19811;BME280;10065;49.632;8.346;2023-02-01T11:09:18;101215.66;;;9.80;59.95
19811;BME280;10065;49.632;8.346;2023-02-01T11:11:56;101204.38;;;9.67;59.22
19811;BME280;10065;49.632;8.346;2023-02-01T11:14:35;101205.69;;;9.61;60.09
19811;BME280;10065;49.632;8.346;2023-02-01T11:17:20;101204.53;;;9.54;59.04
19811;BME280;10065;49.632;8.346;2023-02-01T11:19:56;101207.56;;;9.50;59.85
19811;BME280;10065;49.632;8.346;2023-02-01T11:22:26;101210.53;;;9.56;60.33
19811;BME280;10065;49.632;8.346;2023-02-01T11:24:55;101209.34;;;9.49;60.46
19811;BME280;10065;49.632;8.346;2023-02-01T11:27:24;101208.97;;;9.54;60.88
19811;BME280;10065;49.632;8.346;2023-02-01T11:29:57;101211.00;;;9.50;60.63
19811;BME280;10065;49.632;8.346;2023-02-01T11:32:28;101191.91;;;9.47;60.99
19811;BME280;10065;49.632;8.346;2023-02-01T11:34:59;101195.75;;;9.42;61.13
19811;BME280;10065;49.632;8.346;2023-02-01T11:37:30;101187.69;;;9.44;61.45
19811;BME280;10065;49.632;8.346;2023-02-01T11:40:01;101192.38;;;9.52;61.56
19811;BME280;10065;49.632;8.346;2023-02-01T11:42:30;101190.41;;;9.65;60.61
19811;BME280;10065;49.632;8.346;2023-02-01T11:45:17;101192.34;;;9.63;59.63
19811;BME280;10065;49.632;8.346;2023-02-01T11:47:46;101190.25;;;9.77;59.76
19811;BME280;10065;49.632;8.346;2023-02-01T11:50:25;101191.78;;;9.91;59.16
19811;BME280;10065;49.632;8.346;2023-02-01T11:53:06;101201.78;;;9.88;58.09
19811;BME280;10065;49.632;8.346;2023-02-01T11:55:56;101200.72;;;9.79;57.96
19811;BME280;10065;49.632;8.346;2023-02-01T12:04:56;101204.22;;;9.79;58.21
19811;BME280;10065;49.632;8.346;2023-02-01T12:07:34;101199.31;;;9.75;57.75
19811;BME280;10065;49.632;8.346;2023-02-01T12:10:17;101213.09;;;9.90;58.18
19811;BME280;10065;49.632;8.346;2023-02-01T12:12:54;101196.59;;;9.86;58.46
19811;BME280;10065;49.632;8.346;2023-02-01T12:15:39;101192.78;;;9.79;57.38
19811;BME280;10065;49.632;8.346;2023-02-01T12:21:37;101191.16;;;9.56;58.53
19811;BME280;10065;49.632;8.346;2023-02-01T12:24:25;101179.59;;;9.57;58.73
19811;BME280;10065;49.632;8.346;2023-02-01T12:27:05;101186.59;;;9.47;58.58
19811;BME280;10065;49.632;8.346;2023-02-01T12:30:03;101186.38;;;9.38;58.59
19811;BME280;10065;49.632;8.346;2023-02-01T12:32:53;101187.81;;;9.42;58.95
19811;BME280;10065;49.632;8.346;2023-02-01T12:35:44;101176.84;;;9.47;59.12
19811;BME280;10065;49.632;8.346;2023-02-01T12:38:32;101178.03;;;9.54;59.61
19811;BME280;10065;49.632;8.346;2023-02-01T12:41:15;101175.00;;;9.59;58.45
19811;BME280;10065;49.632;8.346;2023-02-01T12:43:51;101164.41;;;9.59;58.58
19811;BME280;10065;49.632;8.346;2023-02-01T12:46:22;101171.66;;;9.57;58.28
19811;BME280;10065;49.632;8.346;2023-02-01T12:48:56;101163.34;;;9.50;58.63
19811;BME280;10065;49.632;8.346;2023-02-01T12:51:27;101156.53;;;9.48;58.94
19811;BME280;10065;49.632;8.346;2023-02-01T12:54:02;101151.22;;;9.48;59.02
19811;BME280;10065;49.632;8.346;2023-02-01T12:56:34;101135.34;;;9.48;58.90
19811;BME280;10065;49.632;8.346;2023-02-01T12:59:16;101136.19;;;9.48;59.17
19811;BME280;10065;49.632;8.346;2023-02-01T13:01:50;101127.34;;;9.59;59.43
19811;BME280;10065;49.632;8.346;2023-02-01T13:04:27;101116.00;;;9.68;59.15
19811;BME280;10065;49.632;8.346;2023-02-01T13:07:01;101111.25;;;9.82;56.79
19811;BME280;10065;49.632;8.346;2023-02-01T13:09:39;101105.91;;;9.94;56.72
19811;BME280;10065;49.632;8.346;2023-02-01T13:12:13;101112.88;;;10.15;56.12
19811;BME280;10065;49.632;8.346;2023-02-01T13:14:46;101104.53;;;10.41;55.29
19811;BME280;10065;49.632;8.346;2023-02-01T13:17:19;101106.16;;;10.53;54.37
19811;BME280;10065;49.632;8.346;2023-02-01T13:19:53;101095.72;;;10.61;54.53
19811;BME280;10065;49.632;8.346;2023-02-01T13:22:25;101099.47;;;10.59;54.65
19811;BME280;10065;49.632;8.346;2023-02-01T13:24:59;101095.88;;;10.39;54.85
19811;BME280;10065;49.632;8.346;2023-02-01T13:27:37;101101.97;;;10.30;55.72
19811;BME280;10065;49.632;8.346;2023-02-01T13:30:11;101091.03;;;10.02;56.15
19811;BME280;10065;49.632;8.346;2023-02-01T13:42:01;101080.94;;;9.96;57.61
19811;BME280;10065;49.632;8.346;2023-02-01T13:44:32;101090.69;;;9.96;57.54
19811;BME280;10065;49.632;8.346;2023-02-01T13:47:03;101104.41;;;10.01;57.91